Time;durP1;ratioP1;P1;durP2;ratioP2;P2;SDS_P1;SDS_P2;PMS_P1;PMS_P2;Temp;Humidity;BMP_temperature;BMP_pressure;BME280_temperature;BME280_humidity;BME280_pressure;Samples;Min_cycle;Max_cycle;Signal;HPM_P1;HPM_P2
2021/12/19 00:02:40;;;;;;;2.20;1.40;;;;;;;1.14;82.81;98499.31;102149;1313;72813;-23
2021/12/19 00:10:31;;;;;;;3.80;2.10;;;;;;;0.75;83.96;98493.91;102133;1316;75640;-25
2021/12/19 00:13:00;;;;;;;1.40;1.00;;;;;;;0.89;83.72;98476.14;102277;1316;73808;-28
2021/12/19 00:15:31;;;;;;;1.90;1.30;;;;;;;1.20;82.49;98473.35;102067;1314;73617;-25
2021/12/19 00:17:59;;;;;;;3.70;2.10;;;;;;;1.11;82.70;98462.17;102107;1312;61305;-23
2021/12/19 00:20:29;;;;;;;3.60;1.70;;;;;;;0.94;83.44;98465.27;102115;1313;61133;-23
2021/12/19 00:23:17;;;;;;;3.80;2.00;;;;;;;0.75;84.40;98456.83;102233;1316;75490;-23
2021/12/19 00:25:46;;;;;;;2.30;1.60;;;;;;;0.85;84.15;98451.01;102293;1313;75958;-25
2021/12/19 00:28:14;;;;;;;2.30;1.70;;;;;;;1.14;83.19;98461.89;102319;1313;73476;-28
2021/12/19 00:30:42;;;;;;;3.90;2.00;;;;;;;1.21;82.53;98456.38;102292;1312;61101;-23
2021/12/19 00:33:18;;;;;;;3.60;2.60;;;;;;;0.99;83.45;98463.33;102264;1312;61132;-25
2021/12/19 00:35:47;;;;;;;3.10;2.10;;;;;;;0.88;83.83;98469.50;102249;1312;75539;-22
2021/12/19 00:38:16;;;;;;;2.70;1.80;;;;;;;0.79;84.51;98473.71;102288;1312;74671;-23
2021/12/19 00:40:45;;;;;;;5.90;1.90;;;;;;;1.12;83.36;98459.10;101920;1312;74237;-23
2021/12/19 00:43:32;;;;;;;2.90;2.10;;;;;;;1.27;82.77;98467.36;102070;1316;61128;-23
2021/12/19 00:46:07;;;;;;;2.70;1.90;;;;;;;1.09;83.24;98460.56;102082;1316;61214;-22
2021/12/19 00:48:41;;;;;;;3.60;2.30;;;;;;;0.90;84.23;98450.30;101778;1315;75118;-23
2021/12/19 00:51:13;;;;;;;2.50;1.80;;;;;;;0.70;85.58;98457.42;101952;1314;76076;-23
2021/12/19 00:53:43;;;;;;;2.90;1.90;;;;;;;1.18;84.09;98459.23;101954;1313;74617;-23
2021/12/19 00:56:12;;;;;;;2.70;1.90;;;;;;;1.44;82.93;98448.02;101722;1314;61848;-23
2021/12/19 00:58:41;;;;;;;2.40;1.90;;;;;;;1.17;83.45;98440.16;102129;1312;61062;-22
2021/12/19 01:01:10;;;;;;;3.50;2.30;;;;;;;0.99;84.20;98432.02;102076;1313;75724;-23
2021/12/19 01:03:38;;;;;;;2.00;1.30;;;;;;;0.79;85.18;98428.98;102042;1319;75602;-23
2021/12/19 01:06:07;;;;;;;2.80;1.40;;;;;;;1.03;84.80;98424.33;102178;1312;74400;-23
2021/12/19 01:08:35;;;;;;;3.00;1.60;;;;;;;1.47;83.17;98423.85;102101;1314;62220;-23
2021/12/19 01:11:04;;;;;;;3.50;2.00;;;;;;;1.39;83.06;98422.27;102149;1312;61827;-23
2021/12/19 01:13:33;;;;;;;2.50;1.50;;;;;;;1.13;83.93;98413.35;102085;1313;75619;-22
2021/12/19 01:16:02;;;;;;;1.90;1.00;;;;;;;0.92;84.85;98405.71;102142;1313;76217;-23
2021/12/19 01:18:31;;;;;;;2.10;1.30;;;;;;;0.98;85.11;98402.36;102129;1312;72294;-22
2021/12/19 01:20:59;;;;;;;1.80;1.40;;;;;;;1.39;83.72;98388.23;102171;1316;61118;-22
2021/12/19 01:23:27;;;;;;;2.30;1.40;;;;;;;1.46;82.91;98377.91;102182;1312;61754;-22
2021/12/19 01:26:00;;;;;;;3.10;2.10;;;;;;;1.21;83.76;98378.38;102155;1316;75407;-23
2021/12/19 01:28:28;;;;;;;2.00;1.40;;;;;;;1.04;84.49;98373.13;102092;1312;76049;-22
2021/12/19 01:30:57;;;;;;;1.80;1.30;;;;;;;1.00;85.10;98370.28;102031;1317;72722;-23
2021/12/19 01:33:25;;;;;;;2.00;1.30;;;;;;;1.36;83.86;98364.58;102016;1312;61431;-22
2021/12/19 01:35:54;;;;;;;5.80;1.40;;;;;;;1.46;83.29;98362.17;102109;1313;61224;-25
2021/12/19 01:38:22;;;;;;;2.20;1.50;;;;;;;1.33;83.66;98354.18;102112;1313;75593;-23
2021/12/19 01:40:51;;;;;;;3.20;1.60;;;;;;;1.08;84.35;98352.73;102149;1313;76157;-23
2021/12/19 01:43:20;;;;;;;2.50;1.50;;;;;;;0.97;85.24;98349.73;102220;1316;74138;-23
2021/12/19 01:45:49;;;;;;;1.90;1.50;;;;;;;1.33;84.15;98342.36;102334;1313;61116;-23
2021/12/19 01:48:17;;;;;;;2.10;1.40;;;;;;;1.51;83.14;98327.70;102300;1313;62349;-23
2021/12/19 01:50:45;;;;;;;2.80;1.30;;;;;;;1.28;83.94;98326.88;102279;1313;75396;-23
2021/12/19 01:53:14;;;;;;;3.30;2.10;;;;;;;1.11;84.58;98320.48;102270;1312;75943;-23
2021/12/19 01:55:43;;;;;;;1.60;1.30;;;;;;;0.94;85.44;98318.46;102327;1314;74583;-22
2021/12/19 01:58:19;;;;;;;2.10;1.40;;;;;;;1.28;84.73;98326.88;102215;1317;61180;-21
2021/12/19 02:00:52;;;;;;;2.60;1.50;;;;;;;1.47;83.66;98318.18;102286;1312;61248;-21
2021/12/19 02:03:21;;;;;;;2.00;1.40;;;;;;;1.42;83.75;98318.27;101939;1315;74706;-21
2021/12/19 02:05:49;;;;;;;2.80;1.70;;;;;;;1.16;84.56;98310.44;102124;1316;75211;-21
2021/12/19 02:08:19;;;;;;;1.50;1.30;;;;;;;0.98;85.33;98301.48;102154;1314;72935;-21
2021/12/19 02:10:48;;;;;;;3.20;1.70;;;;;;;1.27;84.59;98303.20;102019;1313;61176;-21
2021/12/19 02:13:38;;;;;;;1.70;1.20;;;;;;;1.45;83.69;98305.60;102247;1316;63054;-21
2021/12/19 02:16:06;;;;;;;2.20;1.50;;;;;;;1.32;83.91;98294.68;102151;1313;75530;-21
2021/12/19 02:18:35;;;;;;;3.00;1.50;;;;;;;1.10;85.13;98289.59;102111;1313;74270;-22
2021/12/19 02:21:03;;;;;;;1.20;1.10;;;;;;;1.04;85.38;98281.50;102043;1312;74496;-21
2021/12/19 02:23:32;;;;;;;2.40;1.60;;;;;;;1.41;84.38;98269.08;101974;1313;61322;-22
2021/12/19 02:26:01;;;;;;;3.00;1.80;;;;;;;1.64;83.29;98270.17;102079;1313;61238;-22
2021/12/19 02:28:30;;;;;;;2.40;1.40;;;;;;;1.51;83.42;98258.40;102088;1317;75653;-22
2021/12/19 02:30:58;;;;;;;3.50;1.80;;;;;;;1.29;84.32;98249.34;102059;1313;74450;-22
2021/12/19 02:33:28;;;;;;;2.60;2.00;;;;;;;1.16;85.01;98244.79;102237;1316;74472;-23
2021/12/19 02:36:22;;;;;;;2.00;1.60;;;;;;;1.48;84.19;98239.22;101822;1313;61133;-23
2021/12/19 02:50:19;;;;;;;2.40;1.60;;;;;;;1.46;83.96;98202.90;102286;1313;61600;-23
2021/12/19 02:52:47;;;;;;;4.90;2.90;;;;;;;1.33;84.57;98194.79;102080;1316;62287;-22
2021/12/19 02:55:16;;;;;;;3.00;1.70;;;;;;;1.24;85.03;98198.52;102316;1313;75006;-22
2021/12/19 02:57:46;;;;;;;6.00;2.70;;;;;;;1.23;85.38;98187.45;102224;1314;75902;-24
2021/12/19 03:00:18;;;;;;;3.40;2.10;;;;;;;1.64;83.78;98189.73;102226;1313;74587;-22
2021/12/19 03:02:46;;;;;;;5.30;3.30;;;;;;;1.64;83.55;98174.02;102182;1314;61226;-22
2021/12/19 03:05:15;;;;;;;3.30;2.30;;;;;;;1.39;84.54;98167.20;102265;1312;62104;-23
2021/12/19 03:07:44;;;;;;;5.80;3.00;;;;;;;1.25;84.76;98151.23;102284;1313;75748;-22
2021/12/19 03:18:46;;;;;;;6.20;3.60;;;;;;;1.44;84.30;98119.42;102116;1313;61086;-22
2021/12/19 03:21:17;;;;;;;5.30;2.90;;;;;;;1.27;85.23;98110.66;102245;1313;75429;-22
2021/12/19 03:23:46;;;;;;;7.70;4.40;;;;;;;1.60;84.48;98110.75;102048;1313;73544;-22
2021/12/19 03:26:15;;;;;;;6.70;3.40;;;;;;;1.70;83.68;98118.75;102052;1312;74318;-22
2021/12/19 03:28:43;;;;;;;7.00;4.20;;;;;;;1.61;84.05;98103.17;102107;1313;61199;-22
2021/12/19 03:31:13;;;;;;;6.80;3.50;;;;;;;1.31;85.35;98095.88;102082;1312;61179;-23
2021/12/19 03:33:42;;;;;;;6.00;3.50;;;;;;;1.34;85.68;98102.73;101945;1312;75620;-22
2021/12/19 03:36:10;;;;;;;7.40;4.00;;;;;;;1.74;83.83;98087.66;102081;1312;75899;-23
2021/12/19 03:38:42;;;;;;;7.40;2.90;;;;;;;1.87;83.13;98085.00;102161;1312;74276;-22
2021/12/19 03:43:39;;;;;;;6.80;4.30;;;;;;;1.39;85.20;98078.45;102279;1316;62152;-23
2021/12/19 03:46:07;;;;;;;10.40;6.00;;;;;;;1.57;85.07;98078.94;102123;1312;74642;-23
2021/12/19 03:48:36;;;;;;;9.40;4.10;;;;;;;1.80;83.72;98071.23;102050;1312;74086;-23
2021/12/19 03:51:04;;;;;;;7.90;5.10;;;;;;;1.82;83.85;98064.29;102016;1313;74571;-22
2021/12/19 03:53:32;;;;;;;8.70;4.50;;;;;;;1.61;84.61;98072.18;102062;1312;62184;-22
2021/12/19 03:56:00;;;;;;;4.30;3.20;;;;;;;1.47;85.27;98063.96;102164;1316;61211;-22
2021/12/19 03:58:30;;;;;;;7.50;3.80;;;;;;;1.69;84.76;98055.96;102166;1313;73653;-22
2021/12/19 04:01:00;;;;;;;7.20;4.20;;;;;;;2.03;83.26;98045.89;102088;1318;76099;-23
2021/12/19 04:03:29;;;;;;;8.20;3.30;;;;;;;2.05;82.98;98049.66;102183;1316;73485;-22
2021/12/19 04:05:58;;;;;;;8.50;5.00;;;;;;;1.80;83.85;98040.44;102071;1312;61212;-23
2021/12/19 04:08:32;;;;;;;6.60;3.50;;;;;;;1.64;84.95;98042.80;101907;1313;61147;-23
2021/12/19 04:11:01;;;;;;;4.30;2.80;;;;;;;1.86;84.23;98043.84;102104;1312;75639;-22
2021/12/19 04:14:07;;;;;;;8.00;4.30;;;;;;;2.16;82.96;98053.66;99166;1349;600368;-22
2021/12/19 04:16:42;;;;;;;8.70;4.70;;;;;;;1.86;84.00;98037.86;101336;1323;61211;-23
2021/12/19 04:19:11;;;;;;;9.40;5.10;;;;;;;1.68;84.86;98033.30;101540;1323;62105;-23
2021/12/19 04:21:39;;;;;;;8.40;5.00;;;;;;;1.76;85.01;98029.20;101452;1328;73574;-23
2021/12/19 04:24:08;;;;;;;12.40;6.90;;;;;;;2.07;83.88;98020.83;101781;1326;76096;-23
2021/12/19 04:26:37;;;;;;;8.50;5.10;;;;;;;2.04;83.83;98018.42;101605;1323;178020;-24
2021/12/19 04:29:05;;;;;;;11.80;6.70;;;;;;;1.85;84.51;98009.68;101747;1317;61131;-23
2021/12/19 04:31:34;;;;;;;11.30;6.50;;;;;;;1.66;85.60;98015.09;101764;1316;61150;-22
2021/12/19 04:34:02;;;;;;;9.10;5.40;;;;;;;1.74;85.77;97995.32;102088;1317;73930;-22
2021/12/19 04:36:36;;;;;;;10.70;6.10;;;;;;;2.09;84.59;98000.82;101865;1317;75224;-21
2021/12/19 04:57:55;;;;;;;12.30;6.40;;;;;;;1.97;85.91;97947.98;102059;1317;61122;-21
2021/12/19 05:00:36;;;;;;;8.60;4.60;;;;;;;2.29;84.57;97954.86;102123;1316;74569;-22
2021/12/19 05:03:16;;;;;;;13.90;8.30;;;;;;;2.49;83.53;97948.94;101870;1317;74595;-22
2021/12/19 05:16:40;;;;;;;12.40;6.00;;;;;;;2.33;84.31;97899.60;101940;1317;76264;-21
2021/12/19 05:19:21;;;;;;;9.90;5.30;;;;;;;2.11;85.38;97898.30;101833;1316;73151;-21
2021/12/19 05:21:53;;;;;;;12.20;6.00;;;;;;;2.27;85.03;97915.25;101927;1317;61198;-22
2021/12/19 05:25:24;;;;;;;10.80;6.90;;;;;;;2.47;84.20;97914.98;101694;1317;61087;-22
2021/12/19 05:27:21;;;;;;;10.80;6.60;;;;;;;2.30;84.75;97899.14;101952;1317;74736;-22
2021/12/19 05:29:49;;;;;;;13.60;7.20;;;;;;;2.05;85.96;97919.57;102042;1317;75910;-22
2021/12/19 05:32:17;;;;;;;12.90;6.70;;;;;;;2.29;85.27;97915.80;101990;1317;73191;-22
2021/12/19 05:34:46;;;;;;;15.30;8.80;;;;;;;2.48;84.25;97889.03;101926;1316;62202;-22
2021/12/19 05:45:37;;;;;;;10.50;6.20;;;;;;;2.57;83.85;97850.56;102055;1317;74647;-24
2021/12/19 05:48:05;;;;;;;9.40;5.70;;;;;;;2.56;83.64;97857.19;101825;1317;61360;-21
2021/12/19 05:50:34;;;;;;;14.30;6.60;;;;;;;2.38;84.43;97862.63;101768;1316;61190;-22
2021/12/19 05:53:03;;;;;;;11.70;6.00;;;;;;;2.26;85.21;97872.13;102099;1317;74588;-23
2021/12/19 05:55:31;;;;;;;12.40;6.90;;;;;;;2.50;84.26;97855.49;102036;1317;75195;-23
2021/12/19 05:57:59;;;;;;;10.60;5.30;;;;;;;2.64;83.49;97846.34;102068;1317;74656;-23
2021/12/19 06:00:28;;;;;;;9.40;5.80;;;;;;;2.61;83.77;97853.25;102034;1317;61213;-23
2021/12/19 06:02:56;;;;;;;11.70;6.00;;;;;;;2.38;84.27;97829.89;101864;1316;61217;-23
2021/12/19 06:05:26;;;;;;;11.10;6.10;;;;;;;2.30;85.16;97831.28;102097;1316;74446;-24
2021/12/19 06:07:54;;;;;;;11.50;6.70;;;;;;;2.58;83.93;97816.94;102052;1317;76086;-24
2021/12/19 06:10:28;;;;;;;9.60;5.30;;;;;;;2.67;83.49;97817.00;101848;1317;72898;-26
2021/12/19 06:12:57;;;;;;;10.20;6.60;;;;;;;2.56;83.79;97806.58;102026;1317;61170;-27
2021/12/19 06:15:26;;;;;;;10.10;6.40;;;;;;;2.30;85.04;97807.30;101811;1317;61149;-27
2021/12/19 06:17:54;;;;;;;8.70;5.00;;;;;;;2.47;84.69;97811.83;102029;1317;72684;-26
2021/12/19 06:20:25;;;;;;;10.90;6.80;;;;;;;2.74;83.65;97814.27;101742;1317;75785;-23
2021/12/19 06:22:53;;;;;;;9.90;5.80;;;;;;;2.61;83.94;97819.44;101640;1320;74374;-24
2021/12/19 06:25:21;;;;;;;9.10;5.40;;;;;;;2.38;85.02;97800.11;102016;1317;61334;-25
2021/12/19 06:27:49;;;;;;;11.20;6.20;;;;;;;2.42;85.06;97782.56;102083;1317;61843;-29
2021/12/19 06:30:18;;;;;;;9.60;5.70;;;;;;;2.60;84.35;97790.93;101738;1317;74639;-25
2021/12/19 06:32:47;;;;;;;8.90;5.20;;;;;;;2.67;83.68;97784.77;101895;1317;75075;-24
2021/12/19 06:35:19;;;;;;;7.50;4.40;;;;;;;2.53;84.18;97786.40;101995;1317;73319;-26
2021/12/19 06:37:48;;;;;;;7.40;4.60;;;;;;;2.41;85.02;97793.75;101805;1316;62900;-23
2021/12/19 06:40:19;;;;;;;6.70;4.40;;;;;;;2.53;84.65;97769.59;101857;1322;61237;-23
2021/12/19 06:42:48;;;;;;;7.10;4.30;;;;;;;2.86;83.27;97763.73;101789;1317;75237;-24
2021/12/19 06:45:17;;;;;;;9.10;5.50;;;;;;;2.75;83.46;97753.20;102070;1323;76310;-24
2021/12/19 06:47:46;;;;;;;10.10;5.00;;;;;;;2.48;84.69;97752.83;101901;1317;72919;-23
2021/12/19 06:50:15;;;;;;;7.40;4.00;;;;;;;2.52;85.03;97761.14;102112;1317;61143;-23
2021/12/19 06:52:44;;;;;;;7.70;4.00;;;;;;;2.77;84.09;97747.77;101839;1322;62171;-23
2021/12/19 06:55:14;;;;;;;6.60;3.90;;;;;;;2.73;83.90;97723.66;101882;1317;74106;-23
2021/12/19 06:57:43;;;;;;;9.00;4.60;;;;;;;2.51;84.97;97734.48;101883;1317;73033;-23
2021/12/19 07:00:14;;;;;;;9.30;4.60;;;;;;;2.42;85.74;97715.59;101996;1320;73187;-23
2021/12/19 07:02:43;;;;;;;9.00;4.70;;;;;;;2.77;84.49;97699.62;101917;1316;62108;-23
2021/12/19 07:05:12;;;;;;;8.90;5.40;;;;;;;2.79;84.25;97688.45;102093;1317;62747;-23
2021/12/19 07:07:41;;;;;;;9.40;4.00;;;;;;;2.62;84.97;97673.57;102129;1317;74881;-23
2021/12/19 07:10:10;;;;;;;6.90;4.10;;;;;;;2.56;85.39;97678.30;101816;1317;74831;-23
2021/12/19 07:12:39;;;;;;;9.10;5.10;;;;;;;2.76;84.76;97634.34;102098;1316;74584;-23
2021/12/19 07:15:08;;;;;;;9.30;4.50;;;;;;;2.90;84.08;97649.52;102240;1313;61889;-22
2021/12/19 07:17:37;;;;;;;9.00;4.80;;;;;;;2.75;84.70;97657.73;102217;1314;61235;-22
2021/12/19 07:20:06;;;;;;;8.10;4.70;;;;;;;2.54;85.78;97660.75;102279;1320;74975;-22
2021/12/19 07:22:41;;;;;;;6.90;3.20;;;;;;;2.75;85.14;97632.58;101852;1320;75858;-22
2021/12/19 07:25:10;;;;;;;8.90;4.60;;;;;;;2.87;84.83;97657.08;102316;1313;71676;-22
2021/12/19 07:27:38;;;;;;;6.80;4.20;;;;;;;2.77;85.16;97661.05;102303;1313;61113;-22
2021/12/19 07:30:07;;;;;;;8.30;4.50;;;;;;;2.57;85.64;97619.77;102242;1314;61872;-22
2021/12/19 07:32:37;;;;;;;11.10;6.50;;;;;;;2.68;85.59;97642.13;101868;1316;74949;-22
2021/12/19 07:35:22;;;;;;;10.70;5.50;;;;;;;2.89;84.63;97637.03;102209;1314;75885;-23
2021/12/19 07:37:52;;;;;;;6.80;4.00;;;;;;;2.82;84.86;97629.80;101882;1317;73433;-22
2021/12/19 07:40:23;;;;;;;7.80;4.20;;;;;;;2.60;85.73;97644.21;102130;1314;61476;-23
2021/12/19 07:42:52;;;;;;;7.00;4.60;;;;;;;2.66;85.79;97620.14;102565;1317;61147;-23
2021/12/19 07:45:21;;;;;;;9.30;4.90;;;;;;;2.92;84.87;97649.00;102292;1313;75296;-23
2021/12/19 07:47:49;;;;;;;5.30;3.20;;;;;;;2.85;84.82;97645.53;102643;1311;76470;-22
2021/12/19 07:50:18;;;;;;;7.00;4.30;;;;;;;2.56;86.28;97656.17;102640;1317;73843;-23
2021/12/19 07:52:47;;;;;;;6.30;4.10;;;;;;;2.62;86.39;97654.86;102559;1317;61248;-22
2021/12/19 07:55:15;;;;;;;7.20;3.70;;;;;;;2.75;85.70;97651.09;102648;1317;62456;-22
2021/12/19 07:57:43;;;;;;;7.00;4.60;;;;;;;2.89;85.09;97652.98;102250;1311;73648;-22
2021/12/19 08:00:13;;;;;;;3.70;2.20;;;;;;;2.37;86.90;97642.96;102640;1311;76155;-23
2021/12/19 08:02:42;;;;;;;5.00;3.50;;;;;;;2.62;86.22;97656.07;102263;1314;73007;-22
2021/12/19 08:05:11;;;;;;;4.90;3.00;;;;;;;2.75;85.55;97642.11;102312;1317;61285;-22
2021/12/19 08:07:40;;;;;;;7.00;3.40;;;;;;;2.68;85.68;97609.01;102287;1314;61893;-22
2021/12/19 08:13:01;;;;;;;4.80;3.50;;;;;;;2.54;86.35;97626.79;102551;1317;75851;-22
2021/12/19 08:15:29;;;;;;;5.60;3.60;;;;;;;2.67;85.96;97632.27;102169;1310;73548;-23
2021/12/19 08:17:58;;;;;;;4.30;3.20;;;;;;;2.62;86.28;97625.77;102312;1314;61153;-23
2021/12/19 08:20:29;;;;;;;3.00;2.30;;;;;;;2.46;86.76;97611.98;102291;1317;61284;-22
2021/12/19 08:22:57;;;;;;;3.10;2.40;;;;;;;2.68;86.40;97639.55;102469;1310;74811;-22
2021/12/19 08:25:26;;;;;;;2.70;1.90;;;;;;;2.68;85.77;97591.54;102115;1317;76128;-23
2021/12/19 08:27:54;;;;;;;9.00;2.50;;;;;;;2.66;85.99;97617.79;102128;1317;74297;-22
2021/12/19 08:30:24;;;;;;;2.90;2.20;;;;;;;2.53;86.76;97610.48;102102;1314;62759;-22
2021/12/19 08:32:58;;;;;;;1.70;1.40;;;;;;;2.71;85.61;97599.09;102262;1316;61296;-21
2021/12/19 08:35:27;;;;;;;2.60;1.80;;;;;;;2.95;84.89;97602.96;102331;1315;75742;-22
2021/12/19 08:37:55;;;;;;;2.50;1.80;;;;;;;2.69;85.27;97593.39;102293;1311;75840;-22
2021/12/19 08:40:24;;;;;;;2.40;1.40;;;;;;;2.49;85.91;97578.90;102219;1311;74189;-22
2021/12/19 08:42:53;;;;;;;2.80;1.60;;;;;;;2.71;85.27;97584.19;102163;1317;61291;-22
2021/12/19 08:45:23;;;;;;;3.10;2.10;;;;;;;2.82;84.99;97601.35;102136;1317;61853;-22
2021/12/19 08:47:52;;;;;;;2.40;1.20;;;;;;;2.74;85.03;97589.76;102021;1314;74124;-22
2021/12/19 08:50:22;;;;;;;2.00;1.00;;;;;;;2.58;85.86;97586.50;102179;1313;74705;-22
2021/12/19 08:52:52;;;;;;;3.50;1.40;;;;;;;2.83;85.18;97560.48;102199;1310;74418;-22
2021/12/19 08:55:21;;;;;;;1.90;1.20;;;;;;;2.93;84.78;97567.98;102306;1310;61201;-21
2021/12/19 08:57:49;;;;;;;2.00;1.50;;;;;;;2.75;85.72;97573.07;102142;1314;61137;-21
2021/12/19 09:00:18;;;;;;;1.80;1.20;;;;;;;2.72;85.79;97569.20;102337;1310;75623;-22
2021/12/19 09:02:50;;;;;;;1.60;0.90;;;;;;;2.80;85.45;97569.64;102399;1310;75132;-22
2021/12/19 09:05:19;;;;;;;1.40;1.00;;;;;;;2.97;84.45;97553.85;102001;1314;74331;-22
2021/12/19 09:07:47;;;;;;;1.80;1.30;;;;;;;2.85;84.38;97539.27;102089;1313;61272;-22
2021/12/19 09:10:16;;;;;;;1.40;1.00;;;;;;;2.67;84.41;97514.70;102272;1310;61170;-22
2021/12/19 09:12:45;;;;;;;1.60;1.20;;;;;;;2.65;84.47;97529.90;102146;1313;75515;-24
2021/12/19 09:15:13;;;;;;;2.70;0.80;;;;;;;2.90;83.70;97531.02;102125;1311;75746;-23
2021/12/19 09:17:41;;;;;;;1.50;1.20;;;;;;;3.01;83.32;97524.75;102105;1317;73463;-23
2021/12/19 09:20:11;;;;;;;1.20;0.90;;;;;;;2.88;83.72;97518.84;102142;1317;61372;-23
2021/12/19 09:22:39;;;;;;;1.20;0.90;;;;;;;2.81;83.79;97492.11;102345;1313;61226;-23
2021/12/19 09:25:19;;;;;;;1.70;1.30;;;;;;;3.02;83.17;97509.04;102268;1316;75694;-24
2021/12/19 09:27:48;;;;;;;1.70;1.10;;;;;;;3.07;82.25;97485.17;102033;1316;73813;-23
2021/12/19 09:30:17;;;;;;;1.50;1.20;;;;;;;2.98;82.77;97502.67;102339;1310;74316;-23
2021/12/19 09:32:51;;;;;;;1.30;0.90;;;;;;;2.78;83.02;97484.92;102227;1310;61485;-23
2021/12/19 09:35:20;;;;;;;1.10;0.90;;;;;;;2.93;82.62;97469.57;102170;1311;61136;-23
2021/12/19 09:37:48;;;;;;;2.30;1.30;;;;;;;3.15;81.82;97474.63;102142;1311;75438;-23
2021/12/19 09:40:21;;;;;;;1.70;0.80;;;;;;;2.98;81.86;97477.80;102236;1314;75872;-23
2021/12/19 09:42:52;;;;;;;1.50;0.80;;;;;;;2.93;82.47;97478.69;102168;1319;74500;-23
2021/12/19 09:45:22;;;;;;;1.10;0.70;;;;;;;2.86;82.73;97468.09;102141;1313;62670;-23
2021/12/19 09:47:50;;;;;;;1.00;0.90;;;;;;;3.09;82.02;97472.20;102013;1313;62092;-23
2021/12/19 09:50:19;;;;;;;1.00;0.70;;;;;;;3.11;81.50;97465.17;102226;1311;73137;-24
2021/12/19 09:52:49;;;;;;;1.80;0.90;;;;;;;2.98;81.41;97447.61;102142;1313;76669;-24
2021/12/19 09:55:21;;;;;;;1.20;0.90;;;;;;;2.81;82.06;97449.36;101956;1313;74546;-24
2021/12/19 09:57:50;;;;;;;1.50;0.80;;;;;;;2.92;81.60;97440.52;102179;1313;61165;-24
2021/12/19 10:00:20;;;;;;;1.70;0.90;;;;;;;3.11;81.30;97456.93;102154;1317;61937;-24
2021/12/19 10:02:48;;;;;;;1.40;1.10;;;;;;;3.02;81.46;97453.65;102003;1313;75727;-24
2021/12/19 10:05:26;;;;;;;0.80;0.70;;;;;;;2.90;82.33;97425.73;102102;1314;75091;-24
2021/12/19 10:08:03;;;;;;;1.20;0.50;;;;;;;2.86;83.66;97449.36;101997;1314;74392;-23
2021/12/19 10:10:54;;;;;;;0.80;0.60;;;;;;;2.95;82.97;97421.09;102310;1311;61909;-24
2021/12/19 10:13:36;;;;;;;1.00;0.50;;;;;;;3.15;82.41;97427.98;102215;1313;61678;-23
2021/12/19 10:16:24;;;;;;;0.80;0.60;;;;;;;3.04;82.91;97431.38;102207;1314;73857;-23
2021/12/19 10:18:54;;;;;;;0.70;0.60;;;;;;;2.94;83.77;97425.50;101927;1314;75154;-23
2021/12/19 10:21:22;;;;;;;1.20;0.70;;;;;;;3.09;83.19;97415.09;101940;1318;73182;-24
2021/12/19 10:23:51;;;;;;;1.20;0.70;;;;;;;3.09;82.90;97403.02;102331;1313;61206;-24
2021/12/19 10:26:19;;;;;;;0.80;0.50;;;;;;;3.06;83.12;97405.67;102182;1314;61485;-24
2021/12/19 10:28:50;;;;;;;1.20;0.80;;;;;;;2.87;83.67;97380.06;102097;1311;74593;-22
2021/12/19 10:31:19;;;;;;;1.10;0.70;;;;;;;3.01;83.93;97405.18;102087;1313;75897;-24
2021/12/19 10:33:48;;;;;;;1.30;0.40;;;;;;;3.34;82.28;97400.79;102143;1314;74302;-24
2021/12/19 10:36:17;;;;;;;0.80;0.60;;;;;;;3.35;82.21;97386.17;102198;1313;61120;-22
2021/12/19 10:38:47;;;;;;;1.10;0.70;;;;;;;3.06;82.86;97396.59;102054;1314;61276;-22
2021/12/19 10:41:25;;;;;;;0.50;0.50;;;;;;;3.03;83.51;97401.67;102126;1313;72886;-22
2021/12/19 10:43:59;;;;;;;0.70;0.50;;;;;;;3.23;82.15;97379.36;101638;1317;76247;-22
2021/12/19 10:46:33;;;;;;;1.20;0.60;;;;;;;3.22;82.41;97386.98;102060;1314;73315;-22
2021/12/19 10:49:02;;;;;;;0.40;0.40;;;;;;;3.00;82.85;97377.16;102074;1313;61948;-22
2021/12/19 10:51:37;;;;;;;0.60;0.40;;;;;;;2.96;83.32;97373.22;102142;1313;63010;-22
2021/12/19 10:54:07;;;;;;;0.70;0.40;;;;;;;3.14;82.54;97351.24;102112;1313;76041;-22
2021/12/19 10:56:36;;;;;;;4.10;0.60;;;;;;;3.27;82.17;97356.09;102155;1314;74874;-24
2021/12/19 10:59:07;;;;;;;1.50;0.50;;;;;;;3.11;82.49;97349.27;102185;1313;74123;-22
2021/12/19 11:01:44;;;;;;;1.20;0.50;;;;;;;3.07;83.16;97367.39;102222;1314;61795;-22
2021/12/19 11:04:15;;;;;;;0.60;0.30;;;;;;;3.34;82.51;97356.36;102338;1313;61154;-22
2021/12/19 11:06:49;;;;;;;0.80;0.60;;;;;;;3.46;81.37;97334.48;102280;1313;75627;-22
2021/12/19 11:09:22;;;;;;;0.40;0.40;;;;;;;3.35;82.21;97329.90;102076;1313;76122;-22
2021/12/19 11:12:00;;;;;;;0.40;0.40;;;;;;;3.20;82.87;97354.94;102194;1310;74468;-22
2021/12/19 11:14:37;;;;;;;0.50;0.40;;;;;;;3.12;83.07;97318.78;102253;1313;61195;-22
2021/12/19 11:17:16;;;;;;;0.40;0.40;;;;;;;3.34;82.22;97322.27;102136;1314;61290;-22
2021/12/19 11:19:45;;;;;;;1.30;0.70;;;;;;;3.24;82.89;97330.55;102072;1314;75648;-22
2021/12/19 11:22:23;;;;;;;0.60;0.50;;;;;;;3.04;83.94;97337.27;102200;1310;76222;-22
2021/12/19 11:24:54;;;;;;;0.60;0.50;;;;;;;2.95;83.93;97313.26;102251;1313;73430;-22
2021/12/19 11:27:22;;;;;;;1.40;0.50;;;;;;;3.09;83.54;97326.23;102280;1313;61924;-22
2021/12/19 11:29:51;;;;;;;0.60;0.50;;;;;;;3.18;83.13;97320.45;102316;1313;62116;-22
2021/12/19 11:32:59;;;;;;;1.20;0.80;;;;;;;3.03;83.81;97313.38;102323;1313;75648;-23
2021/12/19 11:35:28;;;;;;;1.40;0.60;;;;;;;2.99;84.04;97298.59;102038;1313;73300;-22
2021/12/19 11:38:00;;;;;;;0.60;0.40;;;;;;;3.16;83.48;97305.80;102228;1313;73593;-22
2021/12/19 11:40:31;;;;;;;1.80;0.70;;;;;;;3.24;83.34;97315.86;102190;1314;62141;-22
2021/12/19 11:43:05;;;;;;;1.00;0.90;;;;;;;3.09;83.98;97316.47;102278;1313;61421;-22
2021/12/19 11:48:11;;;;;;;0.70;0.40;;;;;;;3.04;84.50;97300.59;102298;1314;74464;-22
2021/12/19 11:50:53;;;;;;;0.60;0.60;;;;;;;3.21;83.85;97316.39;102131;1314;73395;-22
2021/12/19 11:53:24;;;;;;;0.80;0.60;;;;;;;2.98;84.27;97277.54;102236;1313;62337;-22
2021/12/19 11:55:55;;;;;;;0.60;0.40;;;;;;;2.74;85.49;97289.67;102128;1313;61160;-21
2021/12/19 11:58:30;;;;;;;0.30;0.30;;;;;;;3.05;84.83;97292.26;101818;1313;74713;-22
2021/12/19 12:01:09;;;;;;;0.70;0.70;;;;;;;3.26;84.11;97305.41;102181;1313;74905;-22
2021/12/19 12:03:51;;;;;;;0.40;0.40;;;;;;;3.10;84.34;97276.29;102115;1314;74533;-22
2021/12/19 12:06:24;;;;;;;0.40;0.40;;;;;;;2.98;85.04;97282.37;102144;1313;61204;-22
2021/12/19 12:09:12;;;;;;;0.50;0.50;;;;;;;3.16;84.61;97286.23;102124;1314;61710;-22
2021/12/19 12:12:00;;;;;;;1.50;0.50;;;;;;;3.38;83.55;97284.50;102216;1314;75362;-22
2021/12/19 12:14:32;;;;;;;0.70;0.40;;;;;;;3.06;84.73;97292.38;102253;1314;74578;-21
2021/12/19 12:17:11;;;;;;;0.70;0.50;;;;;;;2.98;84.84;97288.70;102177;1313;74725;-21
2021/12/19 12:19:49;;;;;;;0.30;0.30;;;;;;;3.11;84.89;97290.58;102256;1317;62268;-22
2021/12/19 12:22:24;;;;;;;0.40;0.40;;;;;;;3.24;84.43;97292.88;102232;1313;61213;-23
2021/12/19 12:25:02;;;;;;;0.80;0.60;;;;;;;3.13;84.33;97252.56;102056;1313;75535;-23
2021/12/19 12:27:52;;;;;;;0.50;0.30;;;;;;;2.85;85.16;97269.80;101815;1317;396072;-22
2021/12/19 12:30:28;;;;;;;0.60;0.50;;;;;;;3.20;84.57;97276.48;102202;1314;73556;-22
2021/12/19 12:33:05;;;;;;;0.60;0.50;;;;;;;3.23;83.99;97283.18;102232;1314;61170;-22
2021/12/19 12:35:45;;;;;;;0.50;0.50;;;;;;;2.94;85.41;97279.27;102048;1317;61249;-26
2021/12/19 12:38:14;;;;;;;0.40;0.40;;;;;;;2.89;85.60;97276.67;102262;1313;75591;-25
2021/12/19 12:40:49;;;;;;;0.40;0.40;;;;;;;3.19;84.61;97265.80;102314;1313;76406;-24
2021/12/19 12:43:22;;;;;;;0.50;0.50;;;;;;;3.25;84.40;97264.95;102192;1314;74573;-24
2021/12/19 12:46:00;;;;;;;0.50;0.40;;;;;;;2.94;85.21;97260.38;101766;1314;62584;-24
2021/12/19 12:48:31;;;;;;;2.50;0.60;;;;;;;2.91;85.81;97278.27;102124;1311;62039;-22
2021/12/19 12:51:01;;;;;;;0.90;0.70;;;;;;;3.21;84.90;97276.98;102071;1313;74636;-21
2021/12/19 12:53:34;;;;;;;0.70;0.50;;;;;;;3.36;84.29;97264.95;101854;1316;76142;-22
2021/12/19 12:56:06;;;;;;;;;;;;;;;3.21;84.64;97272.86;102208;1311;74406;-24
2021/12/19 12:58:40;;;;;;;0.70;0.60;;;;;;;3.09;84.94;97259.70;102142;1314;61322;-24
2021/12/19 13:01:16;;;;;;;1.00;0.50;;;;;;;3.30;84.86;97272.16;101704;1317;61300;-23
2021/12/19 13:03:54;;;;;;;0.60;0.60;;;;;;;3.47;83.97;97275.90;102107;1310;75721;-23